sensor_id;sensor_type;location;lat;lon;timestamp;temperature;humidity
41592;DHT22;28026;48.562;14.440;2024-01-30T00:02:14;0.90;99.90
41592;DHT22;28026;48.562;14.440;2024-01-30T00:04:45;0.80;99.90
41592;DHT22;28026;48.562;14.440;2024-01-30T00:07:16;0.80;99.90
41592;DHT22;28026;48.562;14.440;2024-01-30T00:09:47;0.70;99.90
41592;DHT22;28026;48.562;14.440;2024-01-30T00:12:21;0.60;99.90
41592;DHT22;28026;48.562;14.440;2024-01-30T00:14:52;0.70;99.90
41592;DHT22;28026;48.562;14.440;2024-01-30T00:17:22;0.60;99.90
41592;DHT22;28026;48.562;14.440;2024-01-30T00:19:55;0.60;99.90
41592;DHT22;28026;48.562;14.440;2024-01-30T00:22:26;0.60;99.90
41592;DHT22;28026;48.562;14.440;2024-01-30T00:24:57;0.70;99.90
41592;DHT22;28026;48.562;14.440;2024-01-30T00:27:28;0.70;99.90
41592;DHT22;28026;48.562;14.440;2024-01-30T00:29:59;0.70;99.90
41592;DHT22;28026;48.562;14.440;2024-01-30T00:32:30;0.60;99.90
41592;DHT22;28026;48.562;14.440;2024-01-30T00:35:00;0.60;99.90
41592;DHT22;28026;48.562;14.440;2024-01-30T00:37:31;0.60;99.90
41592;DHT22;28026;48.562;14.440;2024-01-30T00:40:03;0.50;99.90
41592;DHT22;28026;48.562;14.440;2024-01-30T00:42:34;0.50;99.90
41592;DHT22;28026;48.562;14.440;2024-01-30T00:45:05;0.60;99.90
41592;DHT22;28026;48.562;14.440;2024-01-30T00:47:36;0.50;99.90
41592;DHT22;28026;48.562;14.440;2024-01-30T00:50:07;0.50;99.90
41592;DHT22;28026;48.562;14.440;2024-01-30T00:52:39;0.50;99.90
41592;DHT22;28026;48.562;14.440;2024-01-30T00:55:11;0.50;99.90
41592;DHT22;28026;48.562;14.440;2024-01-30T00:57:43;0.50;99.90
41592;DHT22;28026;48.562;14.440;2024-01-30T01:00:14;0.40;99.90
41592;DHT22;28026;48.562;14.440;2024-01-30T01:02:47;0.40;99.90
41592;DHT22;28026;48.562;14.440;2024-01-30T01:05:18;0.50;99.90
41592;DHT22;28026;48.562;14.440;2024-01-30T01:07:49;0.40;99.90
41592;DHT22;28026;48.562;14.440;2024-01-30T01:10:20;0.40;99.90
41592;DHT22;28026;48.562;14.440;2024-01-30T01:12:51;0.40;99.90
41592;DHT22;28026;48.562;14.440;2024-01-30T01:15:21;0.30;99.90
41592;DHT22;28026;48.562;14.440;2024-01-30T01:17:52;0.40;99.90
41592;DHT22;28026;48.562;14.440;2024-01-30T01:20:23;0.40;99.90
41592;DHT22;28026;48.562;14.440;2024-01-30T01:22:54;0.30;99.90
41592;DHT22;28026;48.562;14.440;2024-01-30T01:25:25;0.30;99.90
41592;DHT22;28026;48.562;14.440;2024-01-30T01:27:56;0.20;99.90
41592;DHT22;28026;48.562;14.440;2024-01-30T01:30:27;0.20;99.90
41592;DHT22;28026;48.562;14.440;2024-01-30T01:32:59;0.20;99.90
41592;DHT22;28026;48.562;14.440;2024-01-30T01:35:32;0.20;99.90
41592;DHT22;28026;48.562;14.440;2024-01-30T01:38:03;0.20;99.90
41592;DHT22;28026;48.562;14.440;2024-01-30T01:40:34;0.20;99.90
41592;DHT22;28026;48.562;14.440;2024-01-30T01:43:05;0.10;99.90
41592;DHT22;28026;48.562;14.440;2024-01-30T01:45:36;0.20;99.90
41592;DHT22;28026;48.562;14.440;2024-01-30T01:48:07;0.20;99.90
41592;DHT22;28026;48.562;14.440;2024-01-30T01:50:40;0.10;99.90
41592;DHT22;28026;48.562;14.440;2024-01-30T01:53:13;0.10;99.90
41592;DHT22;28026;48.562;14.440;2024-01-30T01:55:45;0.00;99.90
41592;DHT22;28026;48.562;14.440;2024-01-30T01:58:19;0.00;99.90
41592;DHT22;28026;48.562;14.440;2024-01-30T02:00:52;0.00;99.90
41592;DHT22;28026;48.562;14.440;2024-01-30T02:03:23;0.00;99.90
41592;DHT22;28026;48.562;14.440;2024-01-30T02:05:55;0.00;99.90
41592;DHT22;28026;48.562;14.440;2024-01-30T02:08:27;0.00;99.90
41592;DHT22;28026;48.562;14.440;2024-01-30T02:10:59;0.10;99.90
41592;DHT22;28026;48.562;14.440;2024-01-30T02:13:30;0.10;99.90
41592;DHT22;28026;48.562;14.440;2024-01-30T02:16:01;0.10;99.90
41592;DHT22;28026;48.562;14.440;2024-01-30T02:18:32;0.10;99.90
41592;DHT22;28026;48.562;14.440;2024-01-30T02:21:06;0.10;99.90
41592;DHT22;28026;48.562;14.440;2024-01-30T02:23:37;0.00;99.90
41592;DHT22;28026;48.562;14.440;2024-01-30T02:26:10;0.00;99.90
41592;DHT22;28026;48.562;14.440;2024-01-30T02:28:42;0.00;99.90
41592;DHT22;28026;48.562;14.440;2024-01-30T02:31:13;0.00;99.90
41592;DHT22;28026;48.562;14.440;2024-01-30T02:33:44;0.00;99.90
41592;DHT22;28026;48.562;14.440;2024-01-30T02:36:14;0.00;99.90
41592;DHT22;28026;48.562;14.440;2024-01-30T02:38:46;0.00;99.90
41592;DHT22;28026;48.562;14.440;2024-01-30T02:41:16;0.00;99.90
41592;DHT22;28026;48.562;14.440;2024-01-30T02:43:47;0.00;99.90
41592;DHT22;28026;48.562;14.440;2024-01-30T02:46:18;0.00;99.90
41592;DHT22;28026;48.562;14.440;2024-01-30T02:48:49;0.00;99.90
41592;DHT22;28026;48.562;14.440;2024-01-30T02:51:20;0.00;99.90
41592;DHT22;28026;48.562;14.440;2024-01-30T02:53:51;0.00;99.90
41592;DHT22;28026;48.562;14.440;2024-01-30T02:56:22;0.00;99.90
41592;DHT22;28026;48.562;14.440;2024-01-30T02:58:53;0.00;99.90
41592;DHT22;28026;48.562;14.440;2024-01-30T03:01:23;-0.10;99.90
41592;DHT22;28026;48.562;14.440;2024-01-30T03:03:55;-0.10;99.90
41592;DHT22;28026;48.562;14.440;2024-01-30T03:06:25;-0.10;99.90
41592;DHT22;28026;48.562;14.440;2024-01-30T03:08:56;-0.20;99.90
41592;DHT22;28026;48.562;14.440;2024-01-30T03:11:27;-0.30;99.90
41592;DHT22;28026;48.562;14.440;2024-01-30T03:13:58;-0.30;99.90
41592;DHT22;28026;48.562;14.440;2024-01-30T03:16:29;-0.30;99.90
41592;DHT22;28026;48.562;14.440;2024-01-30T03:19:00;-0.30;99.90
41592;DHT22;28026;48.562;14.440;2024-01-30T03:21:32;-0.30;99.90
41592;DHT22;28026;48.562;14.440;2024-01-30T03:24:03;-0.30;99.90
41592;DHT22;28026;48.562;14.440;2024-01-30T03:26:35;-0.30;99.90
41592;DHT22;28026;48.562;14.440;2024-01-30T03:29:06;-0.30;99.90
41592;DHT22;28026;48.562;14.440;2024-01-30T03:31:37;-0.20;99.90
41592;DHT22;28026;48.562;14.440;2024-01-30T03:34:09;-0.30;99.90
41592;DHT22;28026;48.562;14.440;2024-01-30T03:36:40;-0.30;99.90
41592;DHT22;28026;48.562;14.440;2024-01-30T03:39:11;-0.30;99.90
41592;DHT22;28026;48.562;14.440;2024-01-30T03:41:42;-0.20;99.90
41592;DHT22;28026;48.562;14.440;2024-01-30T03:44:14;-0.30;99.90
41592;DHT22;28026;48.562;14.440;2024-01-30T03:46:46;-0.40;99.90
41592;DHT22;28026;48.562;14.440;2024-01-30T03:49:16;-0.50;99.90
41592;DHT22;28026;48.562;14.440;2024-01-30T03:51:47;-0.50;99.90
41592;DHT22;28026;48.562;14.440;2024-01-30T03:54:18;-0.50;99.90
41592;DHT22;28026;48.562;14.440;2024-01-30T03:56:49;-0.60;99.90
41592;DHT22;28026;48.562;14.440;2024-01-30T03:59:20;-0.60;99.90
41592;DHT22;28026;48.562;14.440;2024-01-30T04:01:54;-0.70;99.90
41592;DHT22;28026;48.562;14.440;2024-01-30T04:04:25;-0.70;99.90
41592;DHT22;28026;48.562;14.440;2024-01-30T04:06:56;-0.70;99.90
41592;DHT22;28026;48.562;14.440;2024-01-30T04:09:27;-0.70;99.90
41592;DHT22;28026;48.562;14.440;2024-01-30T04:11:58;-0.70;99.90
41592;DHT22;28026;48.562;14.440;2024-01-30T04:14:30;-0.70;99.90
41592;DHT22;28026;48.562;14.440;2024-01-30T04:17:01;-0.60;99.90
41592;DHT22;28026;48.562;14.440;2024-01-30T04:19:31;-0.60;99.90
41592;DHT22;28026;48.562;14.440;2024-01-30T04:22:02;-0.60;99.90
41592;DHT22;28026;48.562;14.440;2024-01-30T04:24:33;-0.50;99.90
41592;DHT22;28026;48.562;14.440;2024-01-30T04:27:04;-0.60;99.90
41592;DHT22;28026;48.562;14.440;2024-01-30T04:29:35;-0.60;99.90
41592;DHT22;28026;48.562;14.440;2024-01-30T04:32:06;-0.60;99.90
41592;DHT22;28026;48.562;14.440;2024-01-30T04:34:37;-0.60;99.90
41592;DHT22;28026;48.562;14.440;2024-01-30T04:37:08;-0.60;99.90
41592;DHT22;28026;48.562;14.440;2024-01-30T04:39:39;-0.60;99.90
41592;DHT22;28026;48.562;14.440;2024-01-30T04:42:09;-0.60;99.90
41592;DHT22;28026;48.562;14.440;2024-01-30T04:44:40;-0.60;99.90
41592;DHT22;28026;48.562;14.440;2024-01-30T04:47:12;-0.60;99.90
41592;DHT22;28026;48.562;14.440;2024-01-30T04:49:43;-0.60;99.90
41592;DHT22;28026;48.562;14.440;2024-01-30T04:52:14;-0.60;99.90
41592;DHT22;28026;48.562;14.440;2024-01-30T04:54:44;-0.60;99.90
41592;DHT22;28026;48.562;14.440;2024-01-30T04:57:15;-0.70;99.90
41592;DHT22;28026;48.562;14.440;2024-01-30T04:59:46;-0.80;99.90
41592;DHT22;28026;48.562;14.440;2024-01-30T05:02:17;-0.80;99.90
41592;DHT22;28026;48.562;14.440;2024-01-30T05:04:48;-0.80;99.90
41592;DHT22;28026;48.562;14.440;2024-01-30T05:07:18;-0.70;99.90
41592;DHT22;28026;48.562;14.440;2024-01-30T05:09:49;-0.70;99.90
41592;DHT22;28026;48.562;14.440;2024-01-30T05:12:20;-0.80;99.90
41592;DHT22;28026;48.562;14.440;2024-01-30T05:14:51;-0.90;99.90
41592;DHT22;28026;48.562;14.440;2024-01-30T05:17:22;-1.00;99.90
41592;DHT22;28026;48.562;14.440;2024-01-30T05:19:53;-1.10;99.90
41592;DHT22;28026;48.562;14.440;2024-01-30T05:22:24;-1.10;99.90
41592;DHT22;28026;48.562;14.440;2024-01-30T05:24:54;-1.10;99.90
41592;DHT22;28026;48.562;14.440;2024-01-30T05:27:25;-1.00;99.90
41592;DHT22;28026;48.562;14.440;2024-01-30T05:29:56;-1.00;99.90
41592;DHT22;28026;48.562;14.440;2024-01-30T05:32:27;-1.00;99.90
41592;DHT22;28026;48.562;14.440;2024-01-30T05:34:58;-1.00;99.90
41592;DHT22;28026;48.562;14.440;2024-01-30T05:37:29;-1.00;99.90
41592;DHT22;28026;48.562;14.440;2024-01-30T05:40:00;-1.00;99.90
41592;DHT22;28026;48.562;14.440;2024-01-30T05:42:30;-1.10;99.90
41592;DHT22;28026;48.562;14.440;2024-01-30T05:45:01;-1.20;99.90
41592;DHT22;28026;48.562;14.440;2024-01-30T05:47:32;-1.20;99.90
41592;DHT22;28026;48.562;14.440;2024-01-30T05:50:03;-1.10;99.90
41592;DHT22;28026;48.562;14.440;2024-01-30T05:52:35;-1.10;99.90
41592;DHT22;28026;48.562;14.440;2024-01-30T05:55:06;-1.20;99.90
41592;DHT22;28026;48.562;14.440;2024-01-30T05:57:37;-1.20;99.90
41592;DHT22;28026;48.562;14.440;2024-01-30T06:00:09;-1.20;99.90
41592;DHT22;28026;48.562;14.440;2024-01-30T06:02:40;-1.10;99.90
41592;DHT22;28026;48.562;14.440;2024-01-30T06:05:11;-1.00;99.90
41592;DHT22;28026;48.562;14.440;2024-01-30T06:07:42;-1.00;99.90
41592;DHT22;28026;48.562;14.440;2024-01-30T06:10:13;-1.00;99.90
41592;DHT22;28026;48.562;14.440;2024-01-30T06:12:44;-1.00;99.90
41592;DHT22;28026;48.562;14.440;2024-01-30T06:15:14;-1.10;99.90
41592;DHT22;28026;48.562;14.440;2024-01-30T06:17:45;-1.10;99.90
41592;DHT22;28026;48.562;14.440;2024-01-30T06:20:16;-1.20;99.90
41592;DHT22;28026;48.562;14.440;2024-01-30T06:22:48;-1.20;99.90
41592;DHT22;28026;48.562;14.440;2024-01-30T06:25:18;-1.20;99.90
41592;DHT22;28026;48.562;14.440;2024-01-30T06:27:50;-1.20;99.90
41592;DHT22;28026;48.562;14.440;2024-01-30T06:30:21;-1.30;99.90
41592;DHT22;28026;48.562;14.440;2024-01-30T06:32:51;-1.20;99.90
41592;DHT22;28026;48.562;14.440;2024-01-30T06:35:23;-1.20;99.90
41592;DHT22;28026;48.562;14.440;2024-01-30T06:37:53;-1.30;99.90
41592;DHT22;28026;48.562;14.440;2024-01-30T06:40:24;-1.30;99.90
41592;DHT22;28026;48.562;14.440;2024-01-30T06:42:55;-1.30;99.90
41592;DHT22;28026;48.562;14.440;2024-01-30T06:45:26;-1.20;99.90
41592;DHT22;28026;48.562;14.440;2024-01-30T06:47:57;-1.20;99.90
41592;DHT22;28026;48.562;14.440;2024-01-30T06:50:28;-1.20;99.90
41592;DHT22;28026;48.562;14.440;2024-01-30T06:52:59;-1.20;99.90
41592;DHT22;28026;48.562;14.440;2024-01-30T06:55:29;-1.10;99.90
41592;DHT22;28026;48.562;14.440;2024-01-30T06:58:00;-1.10;99.90
41592;DHT22;28026;48.562;14.440;2024-01-30T07:00:31;-1.10;99.90
41592;DHT22;28026;48.562;14.440;2024-01-30T07:03:02;-0.90;99.90
41592;DHT22;28026;48.562;14.440;2024-01-30T07:05:34;-0.90;99.90
41592;DHT22;28026;48.562;14.440;2024-01-30T07:08:05;-0.90;99.90
41592;DHT22;28026;48.562;14.440;2024-01-30T07:10:36;-0.80;99.90
41592;DHT22;28026;48.562;14.440;2024-01-30T07:13:07;-0.90;99.90
41592;DHT22;28026;48.562;14.440;2024-01-30T07:15:40;-0.80;99.90
41592;DHT22;28026;48.562;14.440;2024-01-30T07:18:11;-0.60;99.90
41592;DHT22;28026;48.562;14.440;2024-01-30T07:20:43;-0.40;99.90
41592;DHT22;28026;48.562;14.440;2024-01-30T07:23:17;-0.20;99.90
41592;DHT22;28026;48.562;14.440;2024-01-30T07:25:48;-0.10;99.90
41592;DHT22;28026;48.562;14.440;2024-01-30T07:28:19;0.10;99.90
41592;DHT22;28026;48.562;14.440;2024-01-30T07:30:50;0.40;99.90
41592;DHT22;28026;48.562;14.440;2024-01-30T07:33:21;0.60;99.90
41592;DHT22;28026;48.562;14.440;2024-01-30T07:35:53;0.90;99.90
41592;DHT22;28026;48.562;14.440;2024-01-30T07:38:24;1.30;99.90
41592;DHT22;28026;48.562;14.440;2024-01-30T07:40:55;1.60;99.90
41592;DHT22;28026;48.562;14.440;2024-01-30T07:43:25;1.90;99.90
41592;DHT22;28026;48.562;14.440;2024-01-30T07:45:56;2.00;99.90
41592;DHT22;28026;48.562;14.440;2024-01-30T07:48:27;1.90;99.90
41592;DHT22;28026;48.562;14.440;2024-01-30T07:50:58;1.70;99.90
41592;DHT22;28026;48.562;14.440;2024-01-30T07:53:29;1.40;99.90
41592;DHT22;28026;48.562;14.440;2024-01-30T07:56:00;1.20;99.90
41592;DHT22;28026;48.562;14.440;2024-01-30T07:58:31;1.00;99.90
41592;DHT22;28026;48.562;14.440;2024-01-30T08:01:02;1.20;99.90
41592;DHT22;28026;48.562;14.440;2024-01-30T08:03:33;1.20;99.90
41592;DHT22;28026;48.562;14.440;2024-01-30T08:06:05;1.50;99.90
41592;DHT22;28026;48.562;14.440;2024-01-30T08:08:37;1.80;99.90
41592;DHT22;28026;48.562;14.440;2024-01-30T08:11:08;1.90;99.90
41592;DHT22;28026;48.562;14.440;2024-01-30T08:13:39;1.60;99.90
41592;DHT22;28026;48.562;14.440;2024-01-30T08:16:10;1.60;99.90
41592;DHT22;28026;48.562;14.440;2024-01-30T08:18:40;1.70;99.90
41592;DHT22;28026;48.562;14.440;2024-01-30T08:21:11;2.20;99.90
41592;DHT22;28026;48.562;14.440;2024-01-30T08:23:42;2.40;99.90
41592;DHT22;28026;48.562;14.440;2024-01-30T08:26:13;2.50;99.90
41592;DHT22;28026;48.562;14.440;2024-01-30T08:28:44;2.60;99.90
41592;DHT22;28026;48.562;14.440;2024-01-30T08:31:15;2.70;99.90
41592;DHT22;28026;48.562;14.440;2024-01-30T08:33:46;3.40;99.90
41592;DHT22;28026;48.562;14.440;2024-01-30T08:36:17;3.70;99.90
41592;DHT22;28026;48.562;14.440;2024-01-30T08:38:48;4.00;99.90
41592;DHT22;28026;48.562;14.440;2024-01-30T08:41:19;4.20;99.90
41592;DHT22;28026;48.562;14.440;2024-01-30T08:43:51;3.80;99.90
41592;DHT22;28026;48.562;14.440;2024-01-30T08:46:22;3.10;99.90
41592;DHT22;28026;48.562;14.440;2024-01-30T08:48:53;3.30;99.90
41592;DHT22;28026;48.562;14.440;2024-01-30T08:51:24;4.10;99.90
41592;DHT22;28026;48.562;14.440;2024-01-30T08:53:55;4.60;99.90
41592;DHT22;28026;48.562;14.440;2024-01-30T08:56:26;4.20;99.90
41592;DHT22;28026;48.562;14.440;2024-01-30T08:58:57;4.10;99.90
41592;DHT22;28026;48.562;14.440;2024-01-30T09:01:28;4.20;99.90
41592;DHT22;28026;48.562;14.440;2024-01-30T09:03:59;4.10;99.90
41592;DHT22;28026;48.562;14.440;2024-01-30T09:06:30;4.20;99.90
41592;DHT22;28026;48.562;14.440;2024-01-30T09:09:01;4.00;99.90
41592;DHT22;28026;48.562;14.440;2024-01-30T09:11:32;3.70;99.90
41592;DHT22;28026;48.562;14.440;2024-01-30T09:14:05;4.10;99.90
41592;DHT22;28026;48.562;14.440;2024-01-30T09:16:36;4.30;99.90
41592;DHT22;28026;48.562;14.440;2024-01-30T09:19:07;4.10;99.90
41592;DHT22;28026;48.562;14.440;2024-01-30T09:21:39;4.10;99.90
41592;DHT22;28026;48.562;14.440;2024-01-30T09:24:09;4.10;99.90
41592;DHT22;28026;48.562;14.440;2024-01-30T09:26:40;4.60;99.90
41592;DHT22;28026;48.562;14.440;2024-01-30T09:29:11;4.80;99.90
41592;DHT22;28026;48.562;14.440;2024-01-30T09:31:45;5.00;99.90
41592;DHT22;28026;48.562;14.440;2024-01-30T09:34:16;5.10;99.90
41592;DHT22;28026;48.562;14.440;2024-01-30T09:36:47;5.40;99.90
41592;DHT22;28026;48.562;14.440;2024-01-30T09:39:18;5.80;99.90
41592;DHT22;28026;48.562;14.440;2024-01-30T09:44:51;5.40;99.90
41592;DHT22;28026;48.562;14.440;2024-01-30T09:47:22;5.50;99.90
41592;DHT22;28026;48.562;14.440;2024-01-30T09:49:55;5.60;99.90
41592;DHT22;28026;48.562;14.440;2024-01-30T09:52:27;5.50;99.90
41592;DHT22;28026;48.562;14.440;2024-01-30T09:55:00;5.40;99.90
41592;DHT22;28026;48.562;14.440;2024-01-30T09:57:31;5.80;99.90
41592;DHT22;28026;48.562;14.440;2024-01-30T10:00:03;6.20;99.90
41592;DHT22;28026;48.562;14.440;2024-01-30T10:02:39;6.50;99.90
41592;DHT22;28026;48.562;14.440;2024-01-30T10:05:15;6.70;99.90
41592;DHT22;28026;48.562;14.440;2024-01-30T10:07:56;6.40;99.90
41592;DHT22;28026;48.562;14.440;2024-01-30T10:10:28;6.70;99.90
41592;DHT22;28026;48.562;14.440;2024-01-30T10:12:59;6.20;99.90
41592;DHT22;28026;48.562;14.440;2024-01-30T10:15:30;6.50;99.90
41592;DHT22;28026;48.562;14.440;2024-01-30T10:18:01;6.40;99.90
41592;DHT22;28026;48.562;14.440;2024-01-30T10:20:33;6.80;99.90
41592;DHT22;28026;48.562;14.440;2024-01-30T10:23:04;6.60;99.90
41592;DHT22;28026;48.562;14.440;2024-01-30T10:25:36;6.80;99.90
41592;DHT22;28026;48.562;14.440;2024-01-30T10:28:08;6.80;99.90
41592;DHT22;28026;48.562;14.440;2024-01-30T10:30:39;6.60;99.90
41592;DHT22;28026;48.562;14.440;2024-01-30T10:33:10;6.60;99.90
41592;DHT22;28026;48.562;14.440;2024-01-30T10:35:42;6.70;99.90
41592;DHT22;28026;48.562;14.440;2024-01-30T10:38:15;6.80;99.90
41592;DHT22;28026;48.562;14.440;2024-01-30T10:40:53;7.10;99.90
41592;DHT22;28026;48.562;14.440;2024-01-30T10:43:32;7.40;99.90
41592;DHT22;28026;48.562;14.440;2024-01-30T10:46:18;7.20;99.90
41592;DHT22;28026;48.562;14.440;2024-01-30T10:48:57;7.40;99.90
41592;DHT22;28026;48.562;14.440;2024-01-30T10:51:29;7.50;99.90
41592;DHT22;28026;48.562;14.440;2024-01-30T10:54:03;7.70;99.90
41592;DHT22;28026;48.562;14.440;2024-01-30T10:56:36;7.70;99.90
41592;DHT22;28026;48.562;14.440;2024-01-30T10:59:10;8.10;99.90
41592;DHT22;28026;48.562;14.440;2024-01-30T11:01:43;7.70;99.90
41592;DHT22;28026;48.562;14.440;2024-01-30T11:04:15;8.00;99.90
41592;DHT22;28026;48.562;14.440;2024-01-30T11:06:49;8.00;99.90
41592;DHT22;28026;48.562;14.440;2024-01-30T11:09:20;7.80;99.90
41592;DHT22;28026;48.562;14.440;2024-01-30T11:11:52;8.20;99.90
41592;DHT22;28026;48.562;14.440;2024-01-30T11:14:31;8.40;99.90
41592;DHT22;28026;48.562;14.440;2024-01-30T11:17:03;8.10;99.90
41592;DHT22;28026;48.562;14.440;2024-01-30T11:19:35;8.30;99.90
41592;DHT22;28026;48.562;14.440;2024-01-30T11:22:10;8.50;99.90
41592;DHT22;28026;48.562;14.440;2024-01-30T11:24:41;9.20;99.90
41592;DHT22;28026;48.562;14.440;2024-01-30T11:27:13;9.50;99.90
41592;DHT22;28026;48.562;14.440;2024-01-30T11:29:50;9.20;99.90
41592;DHT22;28026;48.562;14.440;2024-01-30T11:32:24;9.20;99.90
41592;DHT22;28026;48.562;14.440;2024-01-30T11:34:55;9.20;99.90
41592;DHT22;28026;48.562;14.440;2024-01-30T11:37:28;9.30;99.90
41592;DHT22;28026;48.562;14.440;2024-01-30T11:40:02;9.20;99.90
41592;DHT22;28026;48.562;14.440;2024-01-30T11:42:36;9.70;99.90
41592;DHT22;28026;48.562;14.440;2024-01-30T11:45:10;9.40;99.90
41592;DHT22;28026;48.562;14.440;2024-01-30T11:47:41;9.10;99.90
41592;DHT22;28026;48.562;14.440;2024-01-30T11:50:12;9.30;99.90
41592;DHT22;28026;48.562;14.440;2024-01-30T11:52:44;9.60;99.90
41592;DHT22;28026;48.562;14.440;2024-01-30T11:55:15;9.60;99.90
41592;DHT22;28026;48.562;14.440;2024-01-30T11:57:46;9.50;99.90
41592;DHT22;28026;48.562;14.440;2024-01-30T12:00:18;9.10;99.90
41592;DHT22;28026;48.562;14.440;2024-01-30T12:02:50;8.90;99.90
41592;DHT22;28026;48.562;14.440;2024-01-30T12:05:26;8.90;99.90
41592;DHT22;28026;48.562;14.440;2024-01-30T12:07:58;9.00;99.90
41592;DHT22;28026;48.562;14.440;2024-01-30T12:10:29;9.10;99.90
41592;DHT22;28026;48.562;14.440;2024-01-30T12:13:01;8.70;99.90
41592;DHT22;28026;48.562;14.440;2024-01-30T12:15:32;8.50;99.90
41592;DHT22;28026;48.562;14.440;2024-01-30T12:18:05;8.60;99.90
41592;DHT22;28026;48.562;14.440;2024-01-30T12:20:37;8.70;99.90
41592;DHT22;28026;48.562;14.440;2024-01-30T12:23:08;8.90;99.90
41592;DHT22;28026;48.562;14.440;2024-01-30T12:25:39;9.20;99.90
41592;DHT22;28026;48.562;14.440;2024-01-30T12:28:10;9.40;99.90
41592;DHT22;28026;48.562;14.440;2024-01-30T12:30:42;9.20;99.90
41592;DHT22;28026;48.562;14.440;2024-01-30T12:33:17;9.40;99.90
41592;DHT22;28026;48.562;14.440;2024-01-30T12:35:48;8.90;99.90
41592;DHT22;28026;48.562;14.440;2024-01-30T12:38:20;9.50;99.90
41592;DHT22;28026;48.562;14.440;2024-01-30T12:40:54;9.50;99.90
41592;DHT22;28026;48.562;14.440;2024-01-30T12:43:26;9.50;99.90
41592;DHT22;28026;48.562;14.440;2024-01-30T12:45:58;9.60;99.90
41592;DHT22;28026;48.562;14.440;2024-01-30T12:48:29;9.90;99.90
41592;DHT22;28026;48.562;14.440;2024-01-30T12:51:00;9.60;99.90
41592;DHT22;28026;48.562;14.440;2024-01-30T12:53:31;9.80;99.90
41592;DHT22;28026;48.562;14.440;2024-01-30T12:56:03;9.80;99.90
41592;DHT22;28026;48.562;14.440;2024-01-30T12:58:34;9.20;99.90
41592;DHT22;28026;48.562;14.440;2024-01-30T13:01:05;9.10;99.90
41592;DHT22;28026;48.562;14.440;2024-01-30T13:03:36;9.20;99.90
41592;DHT22;28026;48.562;14.440;2024-01-30T13:06:07;9.20;99.90
41592;DHT22;28026;48.562;14.440;2024-01-30T13:08:38;9.00;99.90
41592;DHT22;28026;48.562;14.440;2024-01-30T13:11:09;9.20;99.90
41592;DHT22;28026;48.562;14.440;2024-01-30T13:13:40;9.50;99.90
41592;DHT22;28026;48.562;14.440;2024-01-30T13:16:10;9.50;99.90
41592;DHT22;28026;48.562;14.440;2024-01-30T13:18:41;9.40;99.90
41592;DHT22;28026;48.562;14.440;2024-01-30T13:21:13;9.70;99.90
41592;DHT22;28026;48.562;14.440;2024-01-30T13:23:44;9.70;99.90
41592;DHT22;28026;48.562;14.440;2024-01-30T13:26:15;9.60;99.90
41592;DHT22;28026;48.562;14.440;2024-01-30T13:28:46;9.70;99.90
41592;DHT22;28026;48.562;14.440;2024-01-30T13:31:17;9.80;99.90
41592;DHT22;28026;48.562;14.440;2024-01-30T13:33:49;10.20;99.90
41592;DHT22;28026;48.562;14.440;2024-01-30T13:36:21;10.50;99.90
41592;DHT22;28026;48.562;14.440;2024-01-30T13:38:52;10.00;99.90
41592;DHT22;28026;48.562;14.440;2024-01-30T13:41:23;9.50;99.90
41592;DHT22;28026;48.562;14.440;2024-01-30T13:43:54;9.80;99.90
41592;DHT22;28026;48.562;14.440;2024-01-30T13:46:25;9.60;99.90
41592;DHT22;28026;48.562;14.440;2024-01-30T13:48:56;9.50;99.90
41592;DHT22;28026;48.562;14.440;2024-01-30T13:51:27;9.90;99.90
41592;DHT22;28026;48.562;14.440;2024-01-30T13:53:58;10.30;99.90
41592;DHT22;28026;48.562;14.440;2024-01-30T13:56:29;10.60;99.90
41592;DHT22;28026;48.562;14.440;2024-01-30T13:59:00;10.60;99.90
41592;DHT22;28026;48.562;14.440;2024-01-30T14:01:35;10.50;99.90
41592;DHT22;28026;48.562;14.440;2024-01-30T14:04:06;10.20;99.90
41592;DHT22;28026;48.562;14.440;2024-01-30T14:06:37;10.20;99.90
41592;DHT22;28026;48.562;14.440;2024-01-30T14:09:08;10.70;99.90
41592;DHT22;28026;48.562;14.440;2024-01-30T14:11:39;10.60;99.90
41592;DHT22;28026;48.562;14.440;2024-01-30T14:14:10;10.80;99.90
41592;DHT22;28026;48.562;14.440;2024-01-30T14:16:41;11.10;99.90
41592;DHT22;28026;48.562;14.440;2024-01-30T14:19:12;11.00;99.90
41592;DHT22;28026;48.562;14.440;2024-01-30T14:21:43;10.40;99.90
41592;DHT22;28026;48.562;14.440;2024-01-30T14:24:14;10.10;99.90
41592;DHT22;28026;48.562;14.440;2024-01-30T14:26:45;9.80;99.90
41592;DHT22;28026;48.562;14.440;2024-01-30T14:29:17;9.80;99.90
41592;DHT22;28026;48.562;14.440;2024-01-30T14:31:48;9.90;99.90
41592;DHT22;28026;48.562;14.440;2024-01-30T14:34:18;9.90;99.90
41592;DHT22;28026;48.562;14.440;2024-01-30T14:36:49;9.90;99.90
41592;DHT22;28026;48.562;14.440;2024-01-30T14:39:20;10.10;99.90
41592;DHT22;28026;48.562;14.440;2024-01-30T14:41:51;10.30;99.90
41592;DHT22;28026;48.562;14.440;2024-01-30T14:44:22;10.00;99.90
41592;DHT22;28026;48.562;14.440;2024-01-30T14:46:53;9.30;99.90
41592;DHT22;28026;48.562;14.440;2024-01-30T14:49:25;9.20;99.90
41592;DHT22;28026;48.562;14.440;2024-01-30T14:51:56;9.40;99.90
41592;DHT22;28026;48.562;14.440;2024-01-30T14:54:29;9.20;99.90
41592;DHT22;28026;48.562;14.440;2024-01-30T14:57:00;9.20;99.90
41592;DHT22;28026;48.562;14.440;2024-01-30T14:59:31;9.10;99.90
41592;DHT22;28026;48.562;14.440;2024-01-30T15:02:03;9.10;99.90
41592;DHT22;28026;48.562;14.440;2024-01-30T15:04:34;9.00;99.90
41592;DHT22;28026;48.562;14.440;2024-01-30T15:07:05;9.10;99.90
41592;DHT22;28026;48.562;14.440;2024-01-30T15:09:36;8.90;99.90
41592;DHT22;28026;48.562;14.440;2024-01-30T15:12:07;8.60;99.90
41592;DHT22;28026;48.562;14.440;2024-01-30T15:14:38;9.00;99.90
41592;DHT22;28026;48.562;14.440;2024-01-30T15:17:09;8.90;99.90
41592;DHT22;28026;48.562;14.440;2024-01-30T15:19:40;9.00;99.90
41592;DHT22;28026;48.562;14.440;2024-01-30T15:22:10;9.10;99.90
41592;DHT22;28026;48.562;14.440;2024-01-30T15:24:41;9.20;99.90
41592;DHT22;28026;48.562;14.440;2024-01-30T15:27:12;8.90;99.90
41592;DHT22;28026;48.562;14.440;2024-01-30T15:29:43;8.40;99.90
41592;DHT22;28026;48.562;14.440;2024-01-30T15:32:14;8.20;99.90
41592;DHT22;28026;48.562;14.440;2024-01-30T15:34:45;8.20;99.90
41592;DHT22;28026;48.562;14.440;2024-01-30T15:37:16;7.50;99.90
41592;DHT22;28026;48.562;14.440;2024-01-30T15:39:47;7.10;99.90
41592;DHT22;28026;48.562;14.440;2024-01-30T15:42:18;6.30;99.90
41592;DHT22;28026;48.562;14.440;2024-01-30T15:44:48;6.30;99.90
41592;DHT22;28026;48.562;14.440;2024-01-30T15:47:20;6.10;99.90
41592;DHT22;28026;48.562;14.440;2024-01-30T15:49:51;6.10;99.90
41592;DHT22;28026;48.562;14.440;2024-01-30T15:52:22;5.90;99.90
41592;DHT22;28026;48.562;14.440;2024-01-30T15:54:53;5.80;99.90